createdAt,value
2022-10-29T00:00:12.184Z,15.25
2022-10-29T00:00:24.099Z,15.25
2022-10-29T00:00:36.009Z,15.23
2022-10-29T00:00:52.095Z,15.22
2022-10-29T00:01:04.086Z,15.20
2022-10-29T00:01:16.055Z,15.20
2022-10-29T00:01:28.065Z,15.21
2022-10-29T00:01:40.064Z,15.23
2022-10-29T00:01:52.085Z,15.24
2022-10-29T00:02:04.137Z,15.24
2022-10-29T00:02:16.088Z,15.26
2022-10-29T00:02:28.210Z,15.26
2022-10-29T00:02:40.228Z,15.25
2022-10-29T00:02:52.308Z,15.27
2022-10-29T00:03:04.489Z,15.27
2022-10-29T00:03:16.548Z,15.29
2022-10-29T00:03:28.567Z,15.26
2022-10-29T00:03:40.479Z,15.23
2022-10-29T00:03:52.474Z,15.21
2022-10-29T00:04:04.519Z,15.21
2022-10-29T00:04:16.515Z,15.21
2022-10-29T00:04:28.526Z,15.20
2022-10-29T00:04:40.396Z,15.20
2022-10-29T00:04:52.283Z,15.21
2022-10-29T00:05:04.422Z,15.21
2022-10-29T00:05:16.478Z,15.22
2022-10-29T00:05:28.369Z,15.21
2022-10-29T00:05:40.301Z,15.18
2022-10-29T00:05:56.710Z,15.14
2022-10-29T00:06:11.605Z,15.13
2022-10-29T00:06:23.533Z,15.16
2022-10-29T00:06:35.734Z,15.16
2022-10-29T00:07:05.641Z,15.21
2022-10-29T00:07:17.561Z,15.24
2022-10-29T00:07:29.464Z,15.23
2022-10-29T00:07:41.426Z,15.23
2022-10-29T00:07:53.716Z,15.21
2022-10-29T00:08:05.984Z,15.24
2022-10-29T00:08:17.884Z,15.25
2022-10-29T00:08:32.066Z,15.22
2022-10-29T00:08:44.044Z,15.26
2022-10-29T00:08:56.089Z,15.28
2022-10-29T00:09:08.006Z,15.29
2022-10-29T00:09:19.897Z,15.29
2022-10-29T00:09:31.765Z,15.30
2022-10-29T00:09:43.656Z,15.30
2022-10-29T00:09:55.549Z,15.25
2022-10-29T00:10:08.450Z,15.24
2022-10-29T00:10:20.412Z,15.24
2022-10-29T00:10:32.352Z,15.23
2022-10-29T00:10:44.265Z,15.25
2022-10-29T00:11:04.365Z,15.27
2022-10-29T00:11:19.458Z,15.31
2022-10-29T00:11:31.395Z,15.33
2022-10-29T00:11:43.275Z,15.31
2022-10-29T00:11:55.182Z,15.32
2022-10-29T00:12:07.542Z,15.27
2022-10-29T00:12:19.517Z,15.16
2022-10-29T00:12:31.544Z,15.12
2022-10-29T00:12:43.438Z,15.11
2022-10-29T00:12:55.617Z,15.11
2022-10-29T00:13:07.490Z,15.14
2022-10-29T00:13:36.025Z,15.12
2022-10-29T00:13:53.074Z,15.15
2022-10-29T00:14:09.748Z,15.18
2022-10-29T00:14:21.862Z,15.18
2022-10-29T00:14:34.024Z,15.19
2022-10-29T00:14:46.227Z,15.13
2022-10-29T00:14:58.263Z,15.00
2022-10-29T00:15:11.160Z,14.86
2022-10-29T00:15:24.490Z,14.83
2022-10-29T00:15:42.300Z,14.83
2022-10-29T00:16:00.516Z,14.84
2022-10-29T00:16:20.123Z,14.80
2022-10-29T00:16:37.503Z,14.84
2022-10-29T00:16:56.904Z,14.85
2022-10-29T00:17:08.991Z,14.90
2022-10-29T00:17:23.056Z,14.93
2022-10-29T00:17:35.152Z,14.96
2022-10-29T00:17:47.271Z,14.99
2022-10-29T00:17:59.478Z,15.01
2022-10-29T00:18:11.674Z,15.05
2022-10-29T00:18:23.887Z,15.02
2022-10-29T00:18:36.023Z,15.04
2022-10-29T00:18:49.571Z,15.00
2022-10-29T00:19:01.695Z,14.99
2022-10-29T00:19:13.782Z,14.98
2022-10-29T00:19:27.794Z,14.93
2022-10-29T00:19:39.979Z,14.91
2022-10-29T00:19:52.067Z,14.89
2022-10-29T00:20:05.117Z,14.88
2022-10-29T00:20:20.838Z,14.91
2022-10-29T00:20:32.905Z,14.92
2022-10-29T00:20:44.977Z,14.96
2022-10-29T00:21:01.370Z,14.98
2022-10-29T00:21:21.108Z,14.96
2022-10-29T00:21:34.663Z,14.99
2022-10-29T00:21:46.777Z,15.01
2022-10-29T00:21:58.943Z,15.02
2022-10-29T00:22:11.004Z,15.02
2022-10-29T00:22:23.091Z,15.03
2022-10-29T00:22:36.338Z,15.06
2022-10-29T00:22:48.588Z,15.09
2022-10-29T00:23:09.331Z,15.09
2022-10-29T00:23:22.735Z,15.09
2022-10-29T00:23:35.268Z,15.11
2022-10-29T00:23:48.131Z,15.11
2022-10-29T00:24:00.265Z,15.10
2022-10-29T00:24:12.492Z,15.09
2022-10-29T00:24:24.622Z,15.07
2022-10-29T00:24:38.137Z,15.04
2022-10-29T00:24:50.306Z,15.02
2022-10-29T00:25:04.629Z,14.99
2022-10-29T00:25:16.870Z,14.95
2022-10-29T00:25:28.945Z,14.92
2022-10-29T00:25:41.094Z,14.92
2022-10-29T00:26:02.432Z,14.94
2022-10-29T00:26:15.954Z,14.97
2022-10-29T00:26:30.185Z,15.01
2022-10-29T00:26:42.310Z,15.03
2022-10-29T00:26:58.701Z,15.05
2022-10-29T00:27:10.877Z,15.08
2022-10-29T00:27:23.115Z,15.10
2022-10-29T00:27:35.224Z,15.12
2022-10-29T00:27:48.411Z,15.13
2022-10-29T00:28:00.600Z,15.15
2022-10-29T00:28:12.742Z,15.17
2022-10-29T00:28:25.976Z,15.16
2022-10-29T00:28:38.598Z,15.15
2022-10-29T00:28:54.925Z,15.13
2022-10-29T00:29:07.060Z,15.11
2022-10-29T00:29:20.495Z,15.07
2022-10-29T00:29:32.595Z,15.07
2022-10-29T00:29:44.685Z,15.06
2022-10-29T00:29:57.025Z,15.04
2022-10-29T00:30:09.871Z,15.06
2022-10-29T00:30:21.973Z,15.07
2022-10-29T00:30:37.310Z,15.09
2022-10-29T00:30:49.403Z,15.10
2022-10-29T00:31:15.156Z,15.05
2022-10-29T00:31:27.431Z,15.02
2022-10-29T00:31:39.617Z,15.00
2022-10-29T00:31:56.350Z,14.98
2022-10-29T00:32:10.064Z,14.98
2022-10-29T00:32:24.442Z,14.99
2022-10-29T00:32:36.487Z,15.01
2022-10-29T00:32:48.708Z,15.03
2022-10-29T00:33:01.910Z,15.05
2022-10-29T00:33:14.032Z,15.06
2022-10-29T00:33:26.037Z,15.07
2022-10-29T00:33:38.459Z,15.04
2022-10-29T00:33:52.344Z,15.06
2022-10-29T00:34:04.427Z,15.07
2022-10-29T00:34:16.498Z,15.07
2022-10-29T00:34:29.457Z,15.08
2022-10-29T00:34:41.524Z,15.06
2022-10-29T00:34:55.868Z,15.08
2022-10-29T00:35:09.438Z,15.08
2022-10-29T00:35:21.586Z,15.10
2022-10-29T00:35:33.728Z,15.10
2022-10-29T00:35:58.185Z,15.12
2022-10-29T00:36:17.803Z,15.13
2022-10-29T00:36:30.468Z,15.12
2022-10-29T00:36:43.965Z,15.11
2022-10-29T00:36:56.132Z,15.12
2022-10-29T00:37:08.182Z,15.11
2022-10-29T00:37:20.176Z,15.09
2022-10-29T00:37:33.461Z,15.11
2022-10-29T00:37:45.520Z,15.11
2022-10-29T00:37:57.814Z,15.11
2022-10-29T00:38:13.139Z,15.13
2022-10-29T00:38:26.436Z,15.14
2022-10-29T00:38:39.032Z,15.12
2022-10-29T00:38:51.305Z,15.12
2022-10-29T00:39:03.528Z,15.08
2022-10-29T00:39:16.571Z,15.08
2022-10-29T00:39:29.569Z,15.09
2022-10-29T00:39:41.623Z,15.09
2022-10-29T00:39:56.735Z,15.11
2022-10-29T00:40:09.585Z,15.12
2022-10-29T00:40:21.707Z,15.12
2022-10-29T00:40:38.468Z,15.13
2022-10-29T00:40:50.787Z,15.15
2022-10-29T00:41:04.727Z,15.16
2022-10-29T00:41:21.478Z,15.18
2022-10-29T00:41:33.547Z,15.17
2022-10-29T00:41:45.620Z,15.17
2022-10-29T00:41:57.671Z,15.15
2022-10-29T00:42:15.747Z,15.14
2022-10-29T00:42:27.927Z,15.12
2022-10-29T00:42:39.996Z,15.10
2022-10-29T00:42:52.026Z,15.09
2022-10-29T00:43:18.467Z,15.05
2022-10-29T00:43:36.616Z,15.06
2022-10-29T00:43:51.479Z,15.07
2022-10-29T00:44:18.624Z,15.06
2022-10-29T00:44:38.989Z,15.07
2022-10-29T00:44:51.300Z,15.10
2022-10-29T00:45:03.603Z,15.09
2022-10-29T00:45:20.897Z,15.06
2022-10-29T00:45:32.980Z,15.07
2022-10-29T00:45:54.695Z,15.07
2022-10-29T00:46:13.983Z,15.09
2022-10-29T00:46:33.938Z,15.06
2022-10-29T00:46:52.555Z,15.08
2022-10-29T00:47:18.561Z,15.11
2022-10-29T00:47:34.592Z,15.11
2022-10-29T00:47:50.954Z,15.12
2022-10-29T00:48:03.111Z,15.11
2022-10-29T00:48:15.555Z,15.10
2022-10-29T00:48:29.827Z,15.10
2022-10-29T00:48:51.698Z,15.09
2022-10-29T00:49:03.916Z,15.11
2022-10-29T00:49:17.719Z,15.12
2022-10-29T00:49:32.775Z,15.13
2022-10-29T00:49:47.945Z,15.16
2022-10-29T00:50:08.565Z,15.14
2022-10-29T00:50:24.195Z,15.16
2022-10-29T00:50:36.373Z,15.13
2022-10-29T00:50:53.586Z,15.10
2022-10-29T00:51:08.956Z,15.07
2022-10-29T00:51:21.455Z,14.98
2022-10-29T00:51:34.390Z,14.98
2022-10-29T00:51:47.674Z,14.99
2022-10-29T00:52:03.113Z,15.01
2022-10-29T00:52:17.748Z,15.02
2022-10-29T00:52:34.273Z,14.99
2022-10-29T00:52:49.763Z,14.97
2022-10-29T00:53:02.487Z,14.96
2022-10-29T00:53:19.747Z,14.97
2022-10-29T00:53:37.419Z,14.99
2022-10-29T00:53:55.857Z,14.98
2022-10-29T00:54:12.542Z,14.96
2022-10-29T00:54:24.617Z,14.96
2022-10-29T00:54:40.906Z,14.96
2022-10-29T00:54:55.003Z,14.96
2022-10-29T00:55:09.007Z,14.96
2022-10-29T00:55:21.262Z,14.97
2022-10-29T00:55:33.332Z,14.95
2022-10-29T00:55:45.836Z,14.93
2022-10-29T00:55:58.902Z,14.91
2022-10-29T00:56:11.717Z,14.91
2022-10-29T00:56:26.166Z,14.93
2022-10-29T00:56:41.853Z,14.95
2022-10-29T00:57:00.701Z,14.91
2022-10-29T00:57:18.824Z,14.89
2022-10-29T00:57:36.958Z,14.88
2022-10-29T00:57:53.075Z,14.88
2022-10-29T00:58:05.419Z,14.88
2022-10-29T00:58:17.961Z,14.90
2022-10-29T00:58:30.134Z,14.91
2022-10-29T00:58:43.230Z,14.91
2022-10-29T00:58:55.698Z,14.90
2022-10-29T00:59:09.348Z,14.90
2022-10-29T00:59:22.983Z,14.90
2022-10-29T00:59:35.282Z,14.91
2022-10-29T01:00:07.420Z,14.88
2022-10-29T01:00:21.156Z,14.91
2022-10-29T01:00:33.215Z,14.91
2022-10-29T01:00:45.439Z,14.93
2022-10-29T01:00:57.641Z,14.93
2022-10-29T01:01:09.979Z,14.93
2022-10-29T01:01:23.593Z,14.93
2022-10-29T01:01:37.621Z,14.90
2022-10-29T01:01:51.244Z,14.88
2022-10-29T01:02:03.786Z,14.88
2022-10-29T01:02:17.646Z,14.88
2022-10-29T01:02:31.995Z,14.87
2022-10-29T01:02:47.326Z,14.89
2022-10-29T01:02:59.652Z,14.87
2022-10-29T01:03:12.109Z,14.84
2022-10-29T01:03:24.198Z,14.83
2022-10-29T01:03:38.547Z,14.80
2022-10-29T01:03:52.771Z,14.80
2022-10-29T01:04:05.381Z,14.76
2022-10-29T01:04:18.600Z,14.75
2022-10-29T01:04:31.140Z,14.74
2022-10-29T01:04:43.471Z,14.73
2022-10-29T01:04:55.661Z,14.71
2022-10-29T01:05:09.216Z,14.67
2022-10-29T01:05:25.111Z,14.67
2022-10-29T01:05:37.699Z,14.67
2022-10-29T01:05:51.567Z,14.66
2022-10-29T01:06:03.828Z,14.66
2022-10-29T01:06:15.967Z,14.69
2022-10-29T01:06:30.178Z,14.69
2022-10-29T01:06:43.816Z,14.68
2022-10-29T01:06:56.293Z,14.69
2022-10-29T01:07:08.488Z,14.67
2022-10-29T01:07:22.335Z,14.66
2022-10-29T01:07:34.826Z,14.67
2022-10-29T01:07:47.489Z,14.65
2022-10-29T01:08:00.326Z,14.66
2022-10-29T01:08:14.215Z,14.69
2022-10-29T01:08:29.647Z,14.70
2022-10-29T01:08:41.699Z,14.73
2022-10-29T01:08:53.926Z,14.74
2022-10-29T01:09:07.526Z,14.74
2022-10-29T01:09:19.619Z,14.75
2022-10-29T01:09:31.731Z,14.77
2022-10-29T01:09:43.985Z,14.77
2022-10-29T01:09:56.329Z,14.77
2022-10-29T01:10:09.357Z,14.74
2022-10-29T01:10:33.257Z,14.73
2022-10-29T01:10:45.308Z,14.73
2022-10-29T01:11:12.492Z,14.71
2022-10-29T01:11:58.327Z,14.70
2022-10-29T01:12:13.130Z,14.70
2022-10-29T01:12:51.114Z,14.67
2022-10-29T01:13:18.634Z,14.61
2022-10-29T01:13:40.647Z,14.63
2022-10-29T01:14:17.544Z,14.68
2022-10-29T01:14:52.591Z,14.70
2022-10-29T01:15:16.048Z,14.68
2022-10-29T01:15:44.629Z,14.70
2022-10-29T01:16:09.543Z,14.70
2022-10-29T01:16:33.063Z,14.72
2022-10-29T01:17:17.604Z,14.69
2022-10-29T01:17:51.604Z,14.67
2022-10-29T01:18:06.481Z,14.68
2022-10-29T01:18:24.706Z,14.68
2022-10-29T01:18:47.665Z,14.63
2022-10-29T01:19:12.917Z,14.64
2022-10-29T01:19:49.662Z,14.65
2022-10-29T01:20:23.191Z,14.62
2022-10-29T01:20:44.058Z,14.60
2022-10-29T01:21:27.683Z,14.57
2022-10-29T01:21:43.545Z,14.54
2022-10-29T01:22:33.551Z,14.50
2022-10-29T01:23:00.348Z,14.52
2022-10-29T01:23:40.061Z,14.57
2022-10-29T01:24:03.937Z,14.55
2022-10-29T01:24:53.117Z,14.54
2022-10-29T01:25:29.449Z,14.58
2022-10-29T01:26:08.166Z,14.60
2022-10-29T01:26:47.372Z,14.65
2022-10-29T01:27:26.804Z,14.65
2022-10-29T01:27:51.560Z,14.64
2022-10-29T01:28:09.911Z,14.57
2022-10-29T01:28:41.747Z,14.57
2022-10-29T01:29:22.610Z,14.56
2022-10-29T01:30:00.375Z,14.50
2022-10-29T01:30:23.850Z,14.42
2022-10-29T01:31:07.402Z,14.39
2022-10-29T01:31:34.267Z,14.42
2022-10-29T01:31:54.063Z,14.44
2022-10-29T01:32:18.611Z,14.43
2022-10-29T01:32:50.291Z,14.39
2022-10-29T01:33:19.045Z,14.42
2022-10-29T01:33:44.086Z,14.47
2022-10-29T01:34:03.904Z,14.48
2022-10-29T01:34:34.367Z,14.47
2022-10-29T01:35:01.987Z,14.47
2022-10-29T01:35:40.595Z,14.43
2022-10-29T01:36:08.164Z,14.39
2022-10-29T01:36:33.742Z,14.45
2022-10-29T01:37:02.992Z,14.49
2022-10-29T01:37:22.386Z,14.50
2022-10-29T01:38:06.677Z,14.49
2022-10-29T01:38:34.651Z,14.51
2022-10-29T01:39:03.012Z,14.50
2022-10-29T01:39:27.428Z,14.50
2022-10-29T01:39:39.371Z,14.51
2022-10-29T01:40:00.819Z,14.49
2022-10-29T01:40:24.750Z,14.54
2022-10-29T01:41:03.130Z,14.59
2022-10-29T01:41:25.795Z,14.58
2022-10-29T01:41:55.614Z,14.57
2022-10-29T01:42:35.851Z,14.31
2022-10-29T01:42:57.871Z,14.39
2022-10-29T01:43:25.781Z,14.46
2022-10-29T01:43:47.628Z,14.48
2022-10-29T01:44:10.607Z,14.50
2022-10-29T01:44:42.755Z,14.49
2022-10-29T01:45:08.263Z,14.42
2022-10-29T01:45:42.013Z,14.32
2022-10-29T01:46:23.351Z,14.36
2022-10-29T01:46:35.328Z,14.38
2022-10-29T01:46:55.264Z,14.42
2022-10-29T01:47:21.688Z,14.50
2022-10-29T01:47:42.397Z,14.56
2022-10-29T01:47:58.720Z,14.60
2022-10-29T01:48:18.918Z,14.61
2022-10-29T01:48:37.303Z,14.61
2022-10-29T01:48:54.970Z,14.58
2022-10-29T01:49:14.134Z,14.49
2022-10-29T01:49:34.308Z,14.46
2022-10-29T01:49:53.624Z,14.42
2022-10-29T01:50:09.247Z,14.42
2022-10-29T01:50:23.493Z,14.42
2022-10-29T01:50:38.149Z,14.44
2022-10-29T01:50:55.313Z,14.48
2022-10-29T01:51:13.804Z,14.50
2022-10-29T01:51:31.043Z,14.50
2022-10-29T01:51:43.731Z,14.48
2022-10-29T01:51:58.193Z,14.48
2022-10-29T01:52:15.244Z,14.43
2022-10-29T01:52:31.065Z,14.44
2022-10-29T01:52:44.671Z,14.44
2022-10-29T01:52:57.287Z,14.45
2022-10-29T01:53:10.197Z,14.46
2022-10-29T01:53:23.507Z,14.47
2022-10-29T01:53:37.843Z,14.51
2022-10-29T01:53:52.103Z,14.52
2022-10-29T01:54:10.066Z,14.53
2022-10-29T01:54:22.113Z,14.54
2022-10-29T01:54:34.258Z,14.54
2022-10-29T01:54:47.750Z,14.56
2022-10-29T01:54:59.795Z,14.57
2022-10-29T01:55:16.638Z,14.58
2022-10-29T01:55:33.229Z,14.60
2022-10-29T01:55:46.454Z,14.62
2022-10-29T01:56:10.312Z,14.60
2022-10-29T01:56:22.405Z,14.56
2022-10-29T01:56:34.492Z,14.57
2022-10-29T01:56:58.762Z,14.59
2022-10-29T01:57:30.788Z,14.64
2022-10-29T01:57:43.967Z,14.67
2022-10-29T01:57:56.238Z,14.68
2022-10-29T01:58:11.576Z,14.69
2022-10-29T01:58:25.381Z,14.68
2022-10-29T01:58:38.289Z,14.66
2022-10-29T01:58:55.754Z,14.64
2022-10-29T01:59:22.948Z,14.63
2022-10-29T01:59:55.423Z,14.60
2022-10-29T02:00:14.633Z,14.59
2022-10-29T02:00:32.939Z,14.59
2022-10-29T02:00:54.108Z,14.63
2022-10-29T02:01:28.772Z,14.63
2022-10-29T02:01:59.510Z,14.66
2022-10-29T02:02:48.569Z,14.64
2022-10-29T02:03:14.482Z,14.50
2022-10-29T02:03:35.195Z,14.48
2022-10-29T02:04:01.163Z,14.47
2022-10-29T02:04:41.727Z,14.48
2022-10-29T02:05:20.842Z,14.48
2022-10-29T02:05:37.994Z,14.42
2022-10-29T02:05:50.008Z,14.41
2022-10-29T02:06:20.744Z,14.40
2022-10-29T02:07:14.981Z,14.44
2022-10-29T02:07:44.994Z,14.42
2022-10-29T02:07:59.599Z,14.46
2022-10-29T02:08:23.679Z,14.46
2022-10-29T02:08:35.741Z,14.47
2022-10-29T02:09:09.924Z,14.45
2022-10-29T02:09:32.541Z,14.46
2022-10-29T02:10:02.631Z,14.45
2022-10-29T02:10:38.283Z,14.43
2022-10-29T02:11:07.261Z,14.38
2022-10-29T02:11:45.325Z,14.34
2022-10-29T02:12:13.784Z,14.29
2022-10-29T02:12:31.623Z,14.29
2022-10-29T02:12:49.874Z,14.32
2022-10-29T02:13:02.205Z,14.35
2022-10-29T02:13:17.702Z,14.37
2022-10-29T02:13:39.276Z,14.39
2022-10-29T02:13:59.345Z,14.41
2022-10-29T02:14:26.005Z,14.42
2022-10-29T02:14:54.996Z,14.39
2022-10-29T02:15:17.927Z,14.34
2022-10-29T02:15:42.880Z,14.35
2022-10-29T02:15:57.111Z,14.37
2022-10-29T02:16:10.957Z,14.35
2022-10-29T02:16:25.055Z,14.35
2022-10-29T02:16:37.510Z,14.35
2022-10-29T02:16:49.993Z,14.35
2022-10-29T02:17:02.862Z,14.32
2022-10-29T02:17:14.913Z,14.29
2022-10-29T02:17:27.246Z,14.29
2022-10-29T02:17:39.459Z,14.30
2022-10-29T02:17:51.841Z,14.30
2022-10-29T02:18:06.762Z,14.27
2022-10-29T02:18:19.231Z,14.27
2022-10-29T02:18:31.267Z,14.27
2022-10-29T02:18:47.461Z,14.26
2022-10-29T02:19:00.354Z,14.27
2022-10-29T02:19:12.674Z,14.28
2022-10-29T02:19:30.609Z,14.29
2022-10-29T02:19:42.721Z,14.28
2022-10-29T02:19:54.789Z,14.26
2022-10-29T02:20:10.057Z,14.26
2022-10-29T02:20:22.100Z,14.27
2022-10-29T02:20:35.390Z,14.26
2022-10-29T02:20:47.843Z,14.26
2022-10-29T02:20:59.930Z,14.25
2022-10-29T02:21:16.120Z,14.25
2022-10-29T02:21:28.311Z,14.23
2022-10-29T02:21:42.449Z,14.23
2022-10-29T02:21:54.524Z,14.20
2022-10-29T02:22:06.648Z,14.21
2022-10-29T02:22:18.806Z,14.19
2022-10-29T02:22:30.836Z,14.19
2022-10-29T02:22:43.503Z,14.21
2022-10-29T02:22:55.815Z,14.17
2022-10-29T02:23:07.942Z,14.18
2022-10-29T02:23:19.976Z,14.19
2022-10-29T02:23:32.089Z,14.21
2022-10-29T02:23:44.584Z,14.23
2022-10-29T02:23:56.660Z,14.22
2022-10-29T02:24:08.955Z,14.23
2022-10-29T02:24:21.028Z,14.24
2022-10-29T02:24:33.147Z,14.24
2022-10-29T02:24:45.228Z,14.22
2022-10-29T02:24:57.303Z,14.23
2022-10-29T02:25:09.938Z,14.21
2022-10-29T02:25:22.645Z,14.20
2022-10-29T02:25:34.790Z,14.22
2022-10-29T02:25:47.004Z,14.22
2022-10-29T02:25:59.203Z,14.22
2022-10-29T02:26:11.619Z,14.23
2022-10-29T02:26:24.019Z,14.25
2022-10-29T02:26:36.085Z,14.27
2022-10-29T02:26:48.107Z,14.25
2022-10-29T02:27:00.244Z,14.22
2022-10-29T02:27:12.291Z,14.20
2022-10-29T02:27:24.379Z,14.20
2022-10-29T02:27:36.440Z,14.21
2022-10-29T02:27:48.505Z,14.23
2022-10-29T02:28:02.059Z,14.24
2022-10-29T02:28:14.287Z,14.22
2022-10-29T02:28:26.411Z,14.23
2022-10-29T02:28:38.848Z,14.24
2022-10-29T02:28:50.935Z,14.24
2022-10-29T02:29:03.131Z,14.24
2022-10-29T02:29:15.183Z,14.24
2022-10-29T02:29:27.445Z,14.25
2022-10-29T02:29:39.488Z,14.24
2022-10-29T02:29:51.647Z,14.23
2022-10-29T02:30:04.726Z,14.22
2022-10-29T02:30:17.629Z,14.22
2022-10-29T02:30:29.660Z,14.22
2022-10-29T02:30:41.731Z,14.18
2022-10-29T02:30:53.815Z,14.13
2022-10-29T02:31:06.017Z,14.11
2022-10-29T02:31:18.072Z,14.12
2022-10-29T02:31:30.119Z,14.12
2022-10-29T02:31:42.195Z,14.13
2022-10-29T02:31:54.223Z,14.12
2022-10-29T02:32:06.383Z,14.09
2022-10-29T02:32:18.519Z,14.08
2022-10-29T02:32:32.568Z,14.06
2022-10-29T02:32:44.745Z,14.05
2022-10-29T02:32:57.261Z,14.08
2022-10-29T02:33:09.526Z,14.07
2022-10-29T02:33:21.645Z,14.08
2022-10-29T02:33:33.785Z,14.06
2022-10-29T02:33:45.862Z,14.04
2022-10-29T02:33:57.881Z,14.02
2022-10-29T02:34:09.975Z,14.01
2022-10-29T02:34:22.009Z,14.01
2022-10-29T02:34:34.110Z,13.99
2022-10-29T02:34:46.138Z,13.98
2022-10-29T02:34:58.168Z,13.99
2022-10-29T02:35:10.608Z,14.01
2022-10-29T02:35:22.797Z,13.99
2022-10-29T02:35:34.844Z,13.99
2022-10-29T02:35:46.897Z,14.01
2022-10-29T02:35:59.089Z,14.02
2022-10-29T02:36:11.197Z,14.07
2022-10-29T02:36:23.233Z,14.08
2022-10-29T02:36:35.296Z,14.10
2022-10-29T02:36:47.358Z,14.11
2022-10-29T02:36:59.395Z,14.13
2022-10-29T02:37:11.472Z,14.12
2022-10-29T02:37:23.584Z,14.13
2022-10-29T02:37:35.954Z,14.15
2022-10-29T02:37:48.727Z,14.13
2022-10-29T02:38:00.869Z,14.13
2022-10-29T02:38:12.935Z,14.13
2022-10-29T02:38:25.121Z,14.09
2022-10-29T02:38:37.222Z,14.07
2022-10-29T02:38:49.270Z,14.06
2022-10-29T02:39:01.322Z,14.03
2022-10-29T02:39:13.438Z,14.01
2022-10-29T02:39:25.534Z,14.01
2022-10-29T02:39:37.652Z,13.99
2022-10-29T02:39:49.733Z,13.98
2022-10-29T02:40:02.215Z,13.97
2022-10-29T02:40:14.520Z,13.96
2022-10-29T02:40:26.531Z,13.97
2022-10-29T02:40:38.634Z,13.98
2022-10-29T02:40:52.149Z,13.99
2022-10-29T02:41:04.322Z,14.02
2022-10-29T02:41:16.386Z,14.03
2022-10-29T02:41:28.451Z,14.02
2022-10-29T02:41:40.595Z,13.99
2022-10-29T02:41:52.695Z,13.96
2022-10-29T02:42:04.911Z,13.93
2022-10-29T02:42:17.104Z,13.91
2022-10-29T02:42:29.214Z,13.91
2022-10-29T02:42:41.272Z,13.90
2022-10-29T02:42:53.573Z,13.89
2022-10-29T02:43:05.891Z,13.90
2022-10-29T02:43:29.909Z,13.87
2022-10-29T02:43:41.973Z,13.87
2022-10-29T02:43:54.054Z,13.89
2022-10-29T02:44:06.121Z,13.92
2022-10-29T02:44:20.255Z,13.95
2022-10-29T02:44:32.408Z,13.97
2022-10-29T02:44:44.415Z,13.97
2022-10-29T02:44:56.513Z,13.99
2022-10-29T02:45:08.964Z,14.01
2022-10-29T02:45:20.980Z,14.02
2022-10-29T02:45:34.905Z,14.02
2022-10-29T02:45:46.892Z,14.03
2022-10-29T02:46:20.424Z,14.00
2022-10-29T02:46:35.999Z,13.99
2022-10-29T02:46:48.079Z,13.98
2022-10-29T02:47:00.133Z,13.95
2022-10-29T02:47:12.319Z,13.93
2022-10-29T02:47:24.383Z,13.91
2022-10-29T02:47:36.420Z,13.91
2022-10-29T02:47:48.439Z,13.92
2022-10-29T02:48:02.023Z,13.93
2022-10-29T02:48:14.049Z,13.93
2022-10-29T02:48:26.092Z,13.94
2022-10-29T02:48:38.159Z,13.92
2022-10-29T02:48:50.604Z,13.90
2022-10-29T02:49:02.895Z,13.86
2022-10-29T02:49:14.971Z,13.82
2022-10-29T02:49:27.160Z,13.82
2022-10-29T02:49:39.240Z,13.81
2022-10-29T02:49:51.383Z,13.77
2022-10-29T02:50:03.655Z,13.71
2022-10-29T02:50:17.192Z,13.69
2022-10-29T02:50:40.454Z,13.64
2022-10-29T02:50:54.659Z,13.70
2022-10-29T02:51:08.923Z,13.68
2022-10-29T02:51:23.355Z,13.67
2022-10-29T02:51:45.059Z,13.69
2022-10-29T02:51:57.130Z,13.69
2022-10-29T02:52:12.907Z,13.69
2022-10-29T02:52:26.206Z,13.69
2022-10-29T02:52:40.933Z,13.70
2022-10-29T02:52:54.132Z,13.69
2022-10-29T02:53:10.485Z,13.69
2022-10-29T02:53:24.583Z,13.69
2022-10-29T02:53:37.140Z,13.67
2022-10-29T02:53:49.185Z,13.66
2022-10-29T02:54:01.215Z,13.67
2022-10-29T02:54:16.231Z,13.64
2022-10-29T02:54:28.282Z,13.62
2022-10-29T02:54:42.971Z,13.63
2022-10-29T02:54:59.628Z,13.65
2022-10-29T02:55:11.687Z,13.66
2022-10-29T02:55:26.323Z,13.66
2022-10-29T02:55:38.342Z,13.67
2022-10-29T02:55:50.414Z,13.70
2022-10-29T02:56:05.603Z,13.71
2022-10-29T02:56:20.063Z,13.73
2022-10-29T02:56:33.626Z,13.75
2022-10-29T02:56:45.718Z,13.76
2022-10-29T02:57:00.850Z,13.75
2022-10-29T02:57:12.908Z,13.72
2022-10-29T02:57:28.261Z,13.70
2022-10-29T02:57:43.428Z,13.69
2022-10-29T02:57:55.706Z,13.66
2022-10-29T02:58:13.888Z,13.67
2022-10-29T02:58:26.019Z,13.66
2022-10-29T02:58:38.770Z,13.68
2022-10-29T02:58:50.796Z,13.69
2022-10-29T02:59:09.142Z,13.74
2022-10-29T02:59:27.635Z,13.77
2022-10-29T02:59:39.972Z,13.79
2022-10-29T02:59:52.088Z,13.80
2022-10-29T03:00:05.727Z,13.82
2022-10-29T03:00:19.501Z,13.83
2022-10-29T03:00:34.627Z,13.83
2022-10-29T03:00:49.987Z,13.84
2022-10-29T03:01:02.255Z,13.85
2022-10-29T03:01:14.495Z,13.86
2022-10-29T03:01:27.980Z,13.85
2022-10-29T03:01:42.257Z,13.85
2022-10-29T03:01:56.538Z,13.79
2022-10-29T03:02:08.825Z,13.78
2022-10-29T03:02:21.064Z,13.76
2022-10-29T03:02:33.212Z,13.75
2022-10-29T03:02:48.415Z,13.77
2022-10-29T03:03:04.042Z,13.74
2022-10-29T03:03:16.189Z,13.75
2022-10-29T03:03:28.663Z,13.73
2022-10-29T03:03:40.825Z,13.74
2022-10-29T03:03:52.937Z,13.73
2022-10-29T03:04:05.116Z,13.75
2022-10-29T03:04:17.230Z,13.75
2022-10-29T03:04:31.650Z,13.77
2022-10-29T03:04:46.168Z,13.74
2022-10-29T03:04:58.207Z,13.73
2022-10-29T03:05:16.912Z,13.74
2022-10-29T03:05:29.041Z,13.72
2022-10-29T03:05:48.113Z,13.66
2022-10-29T03:06:01.456Z,13.66
2022-10-29T03:06:17.746Z,13.66
2022-10-29T03:06:29.851Z,13.66
2022-10-29T03:06:42.020Z,13.64
2022-10-29T03:06:56.259Z,13.64
2022-10-29T03:07:08.333Z,13.63
2022-10-29T03:07:20.475Z,13.63
2022-10-29T03:07:39.004Z,13.62
2022-10-29T03:07:51.041Z,13.65
2022-10-29T03:08:03.072Z,13.68
2022-10-29T03:08:19.010Z,13.69
2022-10-29T03:08:31.124Z,13.67
2022-10-29T03:08:44.059Z,13.70
2022-10-29T03:08:56.170Z,13.74
2022-10-29T03:09:08.355Z,13.72
2022-10-29T03:09:20.532Z,13.72
2022-10-29T03:09:32.519Z,13.75
2022-10-29T03:09:44.573Z,13.77
2022-10-29T03:09:59.604Z,13.78
2022-10-29T03:10:11.704Z,13.78
2022-10-29T03:10:23.723Z,13.77
2022-10-29T03:10:35.866Z,13.77
2022-10-29T03:10:47.971Z,13.78
2022-10-29T03:11:00.050Z,13.82
2022-10-29T03:11:12.353Z,13.83
2022-10-29T03:11:26.746Z,13.85
2022-10-29T03:11:38.851Z,13.84
2022-10-29T03:11:52.964Z,13.84
2022-10-29T03:12:05.260Z,13.84
2022-10-29T03:12:17.362Z,13.84
2022-10-29T03:12:29.381Z,13.85
2022-10-29T03:12:41.442Z,13.86
2022-10-29T03:12:53.616Z,13.84
2022-10-29T03:13:05.931Z,13.86
2022-10-29T03:13:18.675Z,13.89
2022-10-29T03:13:30.788Z,13.90
2022-10-29T03:13:43.216Z,13.92
2022-10-29T03:13:55.400Z,13.90
2022-10-29T03:14:07.496Z,13.89
2022-10-29T03:14:21.859Z,13.88
2022-10-29T03:14:34.139Z,13.88
2022-10-29T03:14:46.171Z,13.82
2022-10-29T03:14:58.372Z,13.84
2022-10-29T03:15:10.766Z,13.79
2022-10-29T03:15:22.873Z,13.77
2022-10-29T03:15:34.934Z,13.77
2022-10-29T03:15:46.973Z,13.80
2022-10-29T03:16:01.148Z,13.78
2022-10-29T03:16:13.252Z,13.82
2022-10-29T03:16:26.559Z,13.86
2022-10-29T03:16:38.649Z,13.89
2022-10-29T03:16:50.693Z,13.89
2022-10-29T03:17:02.740Z,13.92
2022-10-29T03:17:14.820Z,13.97
2022-10-29T03:17:26.898Z,13.98
2022-10-29T03:17:38.923Z,14.00
2022-10-29T03:17:50.984Z,14.03
2022-10-29T03:18:03.999Z,14.04
2022-10-29T03:18:16.075Z,14.05
2022-10-29T03:18:28.234Z,14.03
2022-10-29T03:18:40.307Z,13.99
2022-10-29T03:18:52.336Z,14.00
2022-10-29T03:19:04.437Z,13.99
2022-10-29T03:19:16.457Z,14.02
2022-10-29T03:19:28.555Z,14.03
2022-10-29T03:19:40.608Z,14.05
2022-10-29T03:19:52.611Z,14.07
2022-10-29T03:20:05.327Z,14.09
2022-10-29T03:20:17.521Z,14.11
2022-10-29T03:20:29.895Z,14.14
2022-10-29T03:20:42.927Z,14.15
2022-10-29T03:20:55.038Z,14.18
2022-10-29T03:21:07.098Z,14.18
2022-10-29T03:21:19.203Z,14.16
2022-10-29T03:21:31.269Z,14.15
2022-10-29T03:21:43.333Z,14.15
2022-10-29T03:21:55.386Z,14.16
2022-10-29T03:22:07.405Z,14.15
2022-10-29T03:22:19.482Z,14.18
2022-10-29T03:22:31.558Z,14.18
2022-10-29T03:22:43.598Z,14.21
2022-10-29T03:22:55.636Z,14.22